Time;durP1;ratioP1;P1;durP2;ratioP2;P2;SDS_P1;SDS_P2;PMS_P1;PMS_P2;Temp;Humidity;BMP_temperature;BMP_pressure;BME280_temperature;BME280_humidity;BME280_pressure;Samples;Min_cycle;Max_cycle;Signal;HPM_P1;HPM_P2
2023/01/11 00:01:17;;;;;;;17.33;2.03;;;;;;;21.98;61.58;99556.25;7303976;19;129342;-37
2023/01/11 00:03:42;;;;;;;32.77;3.13;;;;;;;22.08;61.31;99559.66;7305396;19;129707;-37
2023/01/11 00:06:09;;;;;;;27.53;2.90;;;;;;;22.11;61.37;99564.59;7305420;19;129718;-37
2023/01/11 00:08:34;;;;;;;;;;;;;;;22.16;62.09;99557.97;7307067;19;128964;-37
2023/01/11 00:11:01;;;;;;;28.17;3.30;;;;;;;22.12;60.85;99555.78;7303379;19;129112;-37
2023/01/11 00:13:27;;;;;;;35.22;3.53;;;;;;;22.13;60.46;99545.16;7304131;19;129678;-38
2023/01/11 00:15:52;;;;;;;36.30;3.63;;;;;;;22.14;60.67;99543.38;7302824;19;129887;-37
2023/01/11 00:18:18;;;;;;;26.67;2.80;;;;;;;22.16;60.83;99542.28;7306982;19;128951;-35
2023/01/11 00:20:43;;;;;;;34.03;3.27;;;;;;;22.18;60.46;99536.88;7308909;19;129287;-38
2023/01/11 00:23:09;;;;;;;30.77;3.20;;;;;;;22.18;61.15;99531.66;7312197;19;129811;-37
2023/01/11 00:25:35;;;;;;;30.23;3.43;;;;;;;22.20;60.18;99516.59;7310760;19;130778;-37
2023/01/11 00:28:00;;;;;;;22.30;2.33;;;;;;;22.20;60.73;99500.88;7311596;19;129282;-38
2023/01/11 00:30:25;;;;;;;33.85;3.28;;;;;;;22.19;61.02;99494.00;7311026;19;128950;-37
2023/01/11 00:32:58;;;;;;;30.17;2.97;;;;;;;22.20;62.05;99495.63;7311146;19;130211;-38
2023/01/11 00:35:24;;;;;;;29.08;3.13;;;;;;;22.20;60.85;99487.78;7310884;19;129467;-36
2023/01/11 00:37:52;;;;;;;27.10;2.88;;;;;;;22.21;60.64;99486.84;7311624;19;129246;-36
2023/01/11 00:40:18;;;;;;;29.08;3.03;;;;;;;22.22;59.99;99483.22;7311365;19;129261;-38
2023/01/11 00:48:11;;;;;;;41.40;3.72;;;;;;;22.20;59.92;99482.53;7312565;19;129963;-37
2023/01/11 00:50:38;;;;;;;26.60;2.83;;;;;;;22.17;61.28;99486.28;7310769;19;129218;-37
2023/01/11 00:53:04;;;;;;;29.27;3.08;;;;;;;22.16;60.44;99483.81;7311290;19;129468;-37
2023/01/11 00:55:33;;;;;;;20.20;2.17;;;;;;;22.18;60.10;99484.50;7310599;19;130053;-37
2023/01/11 00:57:59;;;;;;;33.72;3.28;;;;;;;22.07;60.55;99463.75;7310935;19;129514;-37
2023/01/11 01:00:26;;;;;;;26.27;2.53;;;;;;;22.14;60.13;99468.25;7311624;19;129459;-37
2023/01/11 01:02:52;;;;;;;25.35;2.63;;;;;;;22.15;60.84;99458.63;7310072;19;130527;-37
2023/01/11 01:05:17;;;;;;;32.37;3.67;;;;;;;22.16;60.61;99463.72;7310623;19;130331;-37
2023/01/11 01:07:43;;;;;;;36.20;3.53;;;;;;;22.14;60.39;99460.41;7310006;19;129394;-37
2023/01/11 01:10:10;;;;;;;27.20;2.70;;;;;;;22.05;60.89;99429.84;7310127;19;129739;-37
2023/01/11 01:15:19;;;;;;;20.38;2.42;;;;;;;22.13;60.42;99458.75;7309426;19;129311;-37
2023/01/11 01:17:45;;;;;;;37.03;3.73;;;;;;;22.12;60.23;99456.28;7307502;19;129598;-37
2023/01/11 01:20:11;;;;;;;31.67;3.13;;;;;;;22.11;60.88;99452.03;7310497;19;129308;-37
2023/01/11 01:22:36;;;;;;;26.33;2.67;;;;;;;22.11;60.40;99450.22;7310259;19;129635;-38
2023/01/11 01:25:02;;;;;;;50.30;5.43;;;;;;;22.12;60.29;99446.63;7309321;19;129752;-37
2023/01/11 01:27:27;;;;;;;30.27;2.88;;;;;;;22.11;60.95;99442.38;7309470;19;129318;-37
2023/01/11 01:29:52;;;;;;;29.90;2.90;;;;;;;22.11;60.49;99433.69;7310273;19;129531;-37
2023/01/11 01:32:18;;;;;;;30.77;3.10;;;;;;;22.07;60.23;99443.63;7305762;19;129937;-37
2023/01/11 01:34:43;;;;;;;24.70;2.38;;;;;;;22.07;60.93;99433.16;7309688;19;130396;-37
2023/01/11 01:37:10;;;;;;;27.13;2.80;;;;;;;22.09;60.68;99420.75;7307792;19;129005;-37
2023/01/11 01:39:35;;;;;;;30.50;2.97;;;;;;;22.09;60.53;99425.16;7310146;19;130015;-37
2023/01/11 01:42:01;;;;;;;26.95;2.80;;;;;;;22.07;60.46;99414.00;7307710;19;131400;-37
2023/01/11 01:44:51;;;;;;;23.40;2.20;;;;;;;22.06;62.11;99417.59;7309821;19;130201;-37
2023/01/11 01:47:21;;;;;;;29.02;2.90;;;;;;;22.07;60.37;99411.38;7309692;19;129019;-37
2023/01/11 01:49:46;;;;;;;33.78;3.35;;;;;;;22.04;60.63;99411.69;7309960;19;129378;-37
2023/01/11 01:52:12;;;;;;;25.33;2.53;;;;;;;22.03;60.91;99410.03;7307120;19;129380;-37
2023/01/11 01:54:43;;;;;;;30.07;2.97;;;;;;;22.02;60.87;99416.22;7309833;19;129282;-37
2023/01/11 01:57:15;;;;;;;36.17;3.67;;;;;;;22.01;60.81;99414.59;7306457;19;129011;-37
2023/01/11 01:59:40;;;;;;;32.40;3.20;;;;;;;22.01;60.64;99406.75;7309063;19;129282;-37
2023/01/11 02:02:06;;;;;;;46.55;4.03;;;;;;;21.94;60.31;99398.66;7306452;19;130379;-37
2023/01/11 02:04:42;;;;;;;29.20;2.75;;;;;;;22.03;61.68;99407.44;7309719;19;129414;-37
2023/01/11 02:07:13;;;;;;;34.55;3.28;;;;;;;22.00;61.03;99399.88;7309589;19;129649;-37
2023/01/11 02:10:06;;;;;;;33.58;3.47;;;;;;;21.98;62.41;99398.22;7308945;19;130229;-37
2023/01/11 02:12:39;;;;;;;21.88;2.25;;;;;;;21.98;61.55;99392.16;7308606;19;129120;-37
2023/01/11 02:15:07;;;;;;;27.25;2.95;;;;;;;21.98;60.83;99386.09;7308719;19;129744;-37
2023/01/11 02:17:33;;;;;;;34.95;3.42;;;;;;;22.00;61.06;99381.56;7306321;19;129401;-37
2023/01/11 02:20:07;;;;;;;33.90;3.33;;;;;;;21.98;60.61;99380.88;7308647;19;129466;-37
2023/01/11 02:22:44;;;;;;;28.73;2.80;;;;;;;21.98;61.74;99373.84;7308866;19;129108;-38
2023/01/11 02:25:47;;;;;;;24.80;2.53;;;;;;;21.95;62.39;99372.31;7309059;19;130293;-37
2023/01/11 02:28:30;;;;;;;24.33;2.47;;;;;;;21.97;61.36;99387.88;7309808;19;130087;-37
2023/01/11 02:31:37;;;;;;;22.67;2.42;;;;;;;21.95;61.79;99367.09;7307220;19;129157;-37
2023/01/11 02:34:16;;;;;;;21.83;2.22;;;;;;;21.98;61.50;99365.16;7308977;19;129856;-37
2023/01/11 02:37:04;;;;;;;30.23;3.13;;;;;;;21.95;61.85;99361.84;7306573;19;129892;-37
2023/01/11 02:39:48;;;;;;;;;;;;;;;21.88;62.53;99345.09;7310228;19;129472;-38
2023/01/11 02:45:04;;;;;;;24.08;3.33;;;;;;;21.91;60.52;99359.69;7308262;19;129673;-37
2023/01/11 02:47:38;;;;;;;23.70;2.42;;;;;;;21.90;61.12;99356.25;7309063;19;129340;-37
2023/01/11 02:50:09;;;;;;;20.75;2.20;;;;;;;21.90;61.06;99348.38;7307548;19;129340;-37
2023/01/11 02:52:49;;;;;;;33.80;3.17;;;;;;;21.89;61.82;99346.75;7307697;19;129354;-37
2023/01/11 02:55:18;;;;;;;51.88;5.65;;;;;;;21.90;60.74;99331.84;7307432;19;129389;-36
2023/01/11 02:57:45;;;;;;;32.83;3.30;;;;;;;21.90;60.33;99329.22;7305506;19;129177;-37
2023/01/11 03:00:11;;;;;;;;;;;;;;;21.93;61.81;99332.38;7308813;19;129390;-37
2023/01/11 03:02:36;;;;;;;27.88;2.85;;;;;;;21.90;60.58;99316.97;7306585;19;129579;-37
2023/01/11 03:05:01;;;;;;;39.90;4.03;;;;;;;21.91;60.52;99326.47;7307491;19;129859;-37
2023/01/11 03:07:52;;;;;;;25.10;2.47;;;;;;;21.87;61.89;99319.91;7307777;19;130316;-37
2023/01/11 03:10:45;;;;;;;21.88;2.38;;;;;;;21.89;62.25;99317.13;7308727;19;129605;-37
2023/01/11 03:13:24;;;;;;;43.22;3.95;;;;;;;21.91;61.21;99313.38;7306906;19;129946;-37
2023/01/11 03:15:55;;;;;;;33.15;3.22;;;;;;;21.84;60.34;99294.03;7305748;19;129563;-37
2023/01/11 03:18:31;;;;;;;27.17;3.08;;;;;;;21.90;60.69;99306.50;7306860;19;129413;-38
2023/01/11 03:21:19;;;;;;;35.17;3.50;;;;;;;21.91;61.79;99292.44;7304731;19;129492;-37
2023/01/11 03:23:57;;;;;;;28.73;2.95;;;;;;;21.90;61.98;99296.03;7306294;19;129409;-37
2023/01/11 03:26:35;;;;;;;23.85;2.47;;;;;;;21.91;62.04;99291.63;7305309;19;129580;-37
2023/01/11 03:29:07;;;;;;;25.20;2.78;;;;;;;21.91;61.62;99281.19;7306480;19;129119;-37
2023/01/11 03:31:51;;;;;;;27.17;2.85;;;;;;;21.80;62.19;99263.88;7302765;19;131384;-37
2023/01/11 03:34:30;;;;;;;31.02;3.10;;;;;;;21.89;61.06;99289.19;7306631;19;129184;-37
2023/01/11 03:37:00;;;;;;;28.55;2.80;;;;;;;21.86;61.60;99268.53;7303802;19;129577;-37
2023/01/11 03:39:31;;;;;;;23.00;2.45;;;;;;;21.87;61.22;99269.34;7306583;19;130742;-38
2023/01/11 03:42:00;;;;;;;26.10;2.70;;;;;;;21.89;61.70;99264.78;7303271;19;129329;-37
2023/01/11 03:44:30;;;;;;;32.97;3.30;;;;;;;21.90;61.23;99264.63;7305993;19;129071;-37
2023/01/11 03:47:03;;;;;;;40.72;4.03;;;;;;;21.81;61.18;99247.22;7305371;19;130264;-37
2023/01/11 03:49:36;;;;;;;27.88;2.63;;;;;;;21.88;62.00;99256.09;7305068;19;130257;-37
2023/01/11 03:52:04;;;;;;;29.45;2.85;;;;;;;21.88;61.48;99256.09;7304065;19;129279;-37
2023/01/11 03:54:32;;;;;;;24.70;2.58;;;;;;;21.89;60.83;99252.53;7309637;19;129634;-37
2023/01/11 03:57:09;;;;;;;31.17;3.17;;;;;;;21.88;61.74;99244.84;7310234;19;131109;-37
2023/01/11 03:59:34;;;;;;;38.33;3.60;;;;;;;21.86;60.93;99246.78;7312418;19;130049;-37
2023/01/11 04:02:00;;;;;;;34.67;3.45;;;;;;;21.88;61.44;99245.63;7310109;19;129775;-37
2023/01/11 04:04:26;;;;;;;12.50;1.45;;;;;;;21.88;60.66;99244.84;7312613;19;129536;-36
2023/01/11 04:06:51;;;;;;;27.87;2.73;;;;;;;21.89;61.23;99247.31;7312392;19;129586;-37
2023/01/11 04:09:17;;;;;;;29.00;2.90;;;;;;;21.90;60.41;99248.94;7311093;19;130572;-37
2023/01/11 04:11:43;;;;;;;29.80;2.97;;;;;;;21.79;60.93;99225.63;7310857;19;129482;-37
2023/01/11 04:14:08;;;;;;;21.03;2.10;;;;;;;21.90;60.78;99241.09;7311883;19;129234;-37
2023/01/11 04:16:34;;;;;;;26.98;2.72;;;;;;;21.88;60.08;99240.41;7311763;19;129613;-37
2023/01/11 04:19:01;;;;;;;41.25;4.03;;;;;;;21.89;60.14;99242.06;7311849;19;130644;-37
2023/01/11 04:21:27;;;;;;;29.10;2.78;;;;;;;21.87;60.81;99233.53;7310886;19;129283;-37
2023/01/11 04:23:52;;;;;;;32.67;3.15;;;;;;;21.88;60.73;99224.69;7311946;19;129375;-37
2023/01/11 04:26:17;;;;;;;19.07;1.97;;;;;;;21.76;61.21;99220.69;7311378;19;129589;-37
2023/01/11 04:28:43;;;;;;;41.03;3.70;;;;;;;21.85;61.08;99225.00;7311107;19;129275;-38
2023/01/11 04:31:09;;;;;;;21.60;2.33;;;;;;;21.85;60.49;99229.41;7310444;19;129868;-38
2023/01/11 04:33:35;;;;;;;26.08;2.65;;;;;;;21.85;61.09;99234.66;7309436;19;129584;-37
2023/01/11 04:36:05;;;;;;;22.77;2.37;;;;;;;21.68;61.73;99211.91;7310969;19;129483;-37
2023/01/11 04:38:32;;;;;;;28.77;2.83;;;;;;;21.63;60.73;99224.59;7311233;19;131071;-37
2023/01/11 04:42:17;;;;;;;27.58;2.67;;;;;;;21.69;60.33;99219.59;7310926;19;129770;-37
2023/01/11 04:43:42;;;;;;;25.60;2.63;;;;;;;21.92;60.00;99205.13;7309990;19;130044;-37
2023/01/11 04:46:09;;;;;;;21.90;2.08;;;;;;;22.03;59.34;99209.31;7310871;19;129553;-37
2023/01/11 04:48:35;;;;;;;;;;;;;;;22.08;59.11;99206.22;7310725;19;131046;-37
2023/01/11 04:51:00;;;;;;;34.97;3.28;;;;;;;22.16;59.08;99195.81;7309488;19;129373;-37
2023/01/11 04:53:26;;;;;;;33.33;3.33;;;;;;;22.25;59.04;99193.09;7311224;19;129423;-37
2023/01/11 04:55:52;;;;;;;24.15;2.42;;;;;;;22.30;58.44;99190.00;7308572;19;129203;-37
2023/01/11 04:58:17;;;;;;;32.83;3.30;;;;;;;22.28;58.51;99191.97;7309053;19;130362;-37
2023/01/11 05:00:43;;;;;;;27.83;2.67;;;;;;;22.32;58.80;99188.88;7309553;19;129055;-37
2023/01/11 05:03:08;;;;;;;29.80;3.15;;;;;;;22.33;59.09;99187.09;7310666;19;128998;-37
2023/01/11 05:05:33;;;;;;;17.73;2.08;;;;;;;22.38;58.30;99182.22;7308751;19;129723;-37
2023/01/11 05:07:59;;;;;;;28.53;2.73;;;;;;;22.46;58.25;99184.88;7310477;19;130307;-37
2023/01/11 05:10:24;;;;;;;31.08;3.22;;;;;;;22.48;58.50;99180.28;7309356;19;129266;-37
2023/01/11 05:12:50;;;;;;;29.30;2.77;;;;;;;22.48;58.22;99177.66;7310296;19;128865;-37
2023/01/11 05:15:15;;;;;;;26.33;2.95;;;;;;;22.54;58.16;99179.72;7309984;19;129433;-37
2023/01/11 05:17:40;;;;;;;45.20;4.28;;;;;;;22.54;58.21;99171.84;7308609;19;129360;-38
2023/01/11 05:20:07;;;;;;;17.65;1.85;;;;;;;22.55;58.08;99176.09;7310224;19;128879;-37
2023/01/11 05:22:32;;;;;;;33.13;3.45;;;;;;;22.62;57.93;99182.38;7309306;19;129907;-37
2023/01/11 05:24:57;;;;;;;45.10;4.30;;;;;;;22.62;57.89;99185.00;7307655;19;129397;-38
2023/01/11 05:27:23;;;;;;;36.17;3.47;;;;;;;22.68;58.04;99176.50;7310481;19;129691;-37
2023/01/11 05:29:48;;;;;;;42.20;3.78;;;;;;;22.77;57.43;99175.56;7311130;19;129423;-38
2023/01/11 05:32:13;;;;;;;25.90;2.57;;;;;;;22.79;58.08;99173.63;7306353;19;128935;-37
2023/01/11 05:34:39;;;;;;;28.03;2.67;;;;;;;22.75;57.62;99169.66;7309221;19;130302;-38
2023/01/11 05:37:04;;;;;;;41.70;4.00;;;;;;;22.77;57.57;99165.91;7307615;19;129686;-36
2023/01/11 05:39:29;;;;;;;50.43;5.23;;;;;;;22.70;57.66;99169.31;7309077;19;129770;-37
2023/01/11 05:41:55;;;;;;;24.13;2.33;;;;;;;22.59;57.71;99167.78;7306593;19;129491;-37
2023/01/11 05:47:04;;;;;;;31.23;3.05;;;;;;;22.50;58.58;99158.22;7309413;19;130657;-37
2023/01/11 05:49:30;;;;;;;28.53;2.83;;;;;;;22.45;58.62;99160.47;7309853;19;129568;-37
2023/01/11 05:51:55;;;;;;;29.33;2.97;;;;;;;22.38;58.72;99158.66;7307457;19;129078;-37
2023/01/11 05:54:20;;;;;;;15.37;1.67;;;;;;;22.33;59.19;99160.91;7307791;19;129630;-38
2023/01/11 05:56:46;;;;;;;43.92;4.45;;;;;;;22.26;59.52;99157.25;7307593;19;129151;-37
2023/01/11 05:59:11;;;;;;;22.52;2.25;;;;;;;22.24;58.92;99167.88;7309913;19;129513;-37
2023/01/11 06:01:37;;;;;;;21.52;2.20;;;;;;;22.18;59.38;99152.78;7306799;19;130280;-37
2023/01/11 06:04:02;;;;;;;20.08;2.08;;;;;;;22.22;59.53;99153.28;7308077;19;129503;-37
2023/01/11 06:06:28;;;;;;;41.40;4.15;;;;;;;22.20;59.43;99156.06;7307927;19;129820;-37
2023/01/11 06:08:53;;;;;;;22.40;2.30;;;;;;;22.26;59.41;99149.41;7308928;19;129305;-37
2023/01/11 06:11:19;;;;;;;38.40;4.30;;;;;;;22.26;58.95;99154.63;7303503;19;129774;-37
2023/01/11 06:13:44;;;;;;;20.63;2.30;;;;;;;22.30;59.21;99155.94;7306837;19;129574;-37
2023/01/11 06:16:13;;;;;;;26.77;2.63;;;;;;;22.40;59.07;99157.50;7305920;19;130820;-37
2023/01/11 06:18:46;;;;;;;39.45;3.60;;;;;;;22.38;59.47;99158.66;7308257;19;129596;-37
2023/01/11 06:21:12;;;;;;;26.40;2.55;;;;;;;22.44;58.68;99165.88;7305617;19;129815;-37
2023/01/11 06:23:41;;;;;;;47.03;4.80;;;;;;;22.47;58.97;99163.78;7304067;19;131621;-37
2023/01/11 06:26:09;;;;;;;32.10;3.13;;;;;;;22.46;58.43;99158.69;7304987;19;130918;-38
2023/01/11 06:28:35;;;;;;;28.58;2.65;;;;;;;22.53;58.58;99154.47;7308757;19;129613;-37
2023/01/11 06:31:01;;;;;;;30.45;2.95;;;;;;;22.60;58.20;99147.63;7305655;19;129948;-37
2023/01/11 06:33:28;;;;;;;29.77;2.97;;;;;;;22.66;57.87;99153.06;7307966;19;129711;-37
2023/01/11 06:35:54;;;;;;;37.38;3.50;;;;;;;22.71;58.49;99150.00;7307566;19;129736;-37
2023/01/11 06:38:22;;;;;;;31.80;3.22;;;;;;;22.77;58.17;99144.13;7305084;19;129834;-38
2023/01/11 06:41:01;;;;;;;43.17;3.80;;;;;;;22.73;57.62;99156.72;7307109;19;129290;-37
2023/01/11 06:43:28;;;;;;;27.27;2.78;;;;;;;22.67;57.92;99148.66;7307329;19;129493;-37
2023/01/11 06:45:54;;;;;;;40.33;3.80;;;;;;;22.55;58.40;99139.44;7307252;19;129749;-37
2023/01/11 06:48:21;;;;;;;40.87;4.03;;;;;;;22.50;58.70;99141.66;7307946;19;129198;-37
2023/01/11 06:50:50;;;;;;;36.10;3.63;;;;;;;22.38;58.87;99137.69;7306971;19;129358;-37
2023/01/11 06:53:16;;;;;;;23.63;2.42;;;;;;;22.41;58.80;99134.75;7307575;19;130324;-37
2023/01/11 06:55:41;;;;;;;26.90;2.67;;;;;;;22.33;59.09;99132.91;7305534;19;130350;-37
2023/01/11 06:58:07;;;;;;;20.07;2.27;;;;;;;22.20;59.47;99131.66;7304802;19;129641;-37
2023/01/11 07:00:32;;;;;;;27.65;2.65;;;;;;;22.22;59.93;99132.34;7305920;19;129504;-37
2023/01/11 07:03:04;;;;;;;26.52;2.95;;;;;;;22.21;59.83;99142.03;7306941;19;129786;-36
2023/01/11 07:05:34;;;;;;;33.33;3.45;;;;;;;22.16;59.75;99133.81;7303811;19;129251;-37
2023/01/11 07:07:59;;;;;;;;;;;;;;;22.16;59.18;99132.97;7307759;19;129511;-37
2023/01/11 07:10:25;;;;;;;24.00;2.47;;;;;;;22.30;59.73;99151.53;7306951;19;129766;-37
2023/01/11 07:12:50;;;;;;;49.07;5.47;;;;;;;22.32;59.25;99157.47;7285938;19;130973;-37
2023/01/11 07:15:16;;;;;;;32.97;3.50;;;;;;;22.34;59.12;99152.06;7302660;19;129739;-37
2023/01/11 07:17:42;;;;;;;35.67;3.35;;;;;;;22.41;58.94;99153.09;7297977;19;129842;-37
2023/01/11 07:20:08;;;;;;;36.93;3.97;;;;;;;22.38;59.34;99148.97;7305518;19;129011;-37
2023/01/11 07:22:34;;;;;;;27.23;2.83;;;;;;;22.48;59.19;99159.31;7304170;19;130237;-38
2023/01/11 07:25:00;;;;;;;33.30;3.28;;;;;;;22.59;58.10;99151.25;7304459;19;130965;-37
2023/01/11 07:27:25;;;;;;;35.47;3.33;;;;;;;22.60;58.54;99161.56;7305232;19;129966;-37
2023/01/11 07:29:52;;;;;;;27.03;2.57;;;;;;;22.65;58.36;99166.34;7306476;19;130090;-37
2023/01/11 07:32:18;;;;;;;27.92;2.65;;;;;;;22.72;57.81;99154.25;7302061;19;130271;-37
2023/01/11 07:34:43;;;;;;;29.38;3.13;;;;;;;22.80;58.04;99160.34;7303723;19;129438;-37
2023/01/11 07:37:08;;;;;;;39.27;3.83;;;;;;;22.76;58.00;99142.47;7303882;19;129406;-36
2023/01/11 07:39:34;;;;;;;28.90;2.92;;;;;;;22.78;58.09;99140.50;7305276;19;129832;-37
2023/01/11 07:44:43;;;;;;;31.20;2.92;;;;;;;22.74;58.39;99149.69;7305517;19;129702;-37
2023/01/11 07:47:08;;;;;;;25.67;2.70;;;;;;;;;;7303899;19;129046;-37
2023/01/11 07:49:34;;;;;;;37.40;3.58;;;;;;;22.56;58.41;99151.56;7304919;19;129027;-38
2023/01/11 07:51:59;;;;;;;31.27;3.17;;;;;;;22.50;58.69;99141.66;7302475;19;129681;-37
2023/01/11 07:54:24;;;;;;;27.90;2.67;;;;;;;22.47;59.03;99144.59;7304505;19;129904;-37
2023/01/11 07:56:50;;;;;;;33.07;3.20;;;;;;;22.40;59.24;99140.94;7304031;19;129724;-38
2023/01/11 07:59:16;;;;;;;32.97;3.00;;;;;;;22.35;59.34;99145.84;7305740;19;129819;-37
2023/01/11 08:01:42;;;;;;;35.90;3.57;;;;;;;22.27;59.23;99145.78;7301381;19;129467;-37
2023/01/11 08:04:10;;;;;;;16.98;1.85;;;;;;;22.28;59.10;99148.25;7303697;19;130743;-37
2023/01/11 08:06:36;;;;;;;41.55;3.80;;;;;;;22.27;59.60;99146.63;7303771;19;129318;-37
2023/01/11 08:09:01;;;;;;;28.27;2.75;;;;;;;22.31;59.70;99147.13;7304121;19;129845;-38
2023/01/11 08:17:12;;;;;;;33.33;3.17;;;;;;;22.47;59.13;99152.47;7295586;19;129919;-38
2023/01/11 08:19:38;;;;;;;39.60;4.00;;;;;;;22.51;58.88;99153.81;7297576;19;132340;-37
2023/01/11 08:22:04;;;;;;;49.67;5.30;;;;;;;22.53;58.89;99155.31;7298451;19;130209;-37
2023/01/11 08:24:29;;;;;;;42.97;4.47;;;;;;;22.59;58.55;99141.56;7299358;19;130680;-38
2023/01/11 08:26:54;;;;;;;34.40;3.60;;;;;;;22.56;58.82;99130.63;7300922;19;129801;-37
2023/01/11 08:29:20;;;;;;;33.13;3.27;;;;;;;22.68;57.96;99139.81;7300483;19;129665;-37
2023/01/11 08:31:47;;;;;;;40.10;3.75;;;;;;;22.65;58.13;99140.13;7298222;19;130002;-38
2023/01/11 08:34:12;;;;;;;29.27;3.13;;;;;;;22.72;58.62;99144.59;7302384;19;130354;-38
2023/01/11 08:36:38;;;;;;;22.73;2.47;;;;;;;22.77;58.42;99144.94;7299269;19;129734;-38
2023/01/11 08:39:03;;;;;;;27.00;2.70;;;;;;;22.76;57.61;99117.09;7301148;19;129821;-38
2023/01/11 08:41:29;;;;;;;45.58;4.38;;;;;;;22.79;58.39;99144.78;7307075;19;130769;-38
2023/01/11 08:43:54;;;;;;;29.03;3.00;;;;;;;22.70;58.28;99122.13;7309253;19;129769;-37
2023/01/11 08:46:20;;;;;;;28.80;2.83;;;;;;;22.74;57.80;99133.97;7306473;19;130248;-38
2023/01/11 08:48:45;;;;;;;30.30;3.27;;;;;;;22.66;58.20;99123.44;7307176;19;129817;-37
2023/01/11 08:51:12;;;;;;;34.47;3.80;;;;;;;22.53;58.92;99110.78;7305623;19;128950;-37
2023/01/11 08:53:38;;;;;;;37.88;3.88;;;;;;;22.54;58.67;99122.09;7308127;19;131337;-37
2023/01/11 08:56:03;;;;;;;27.03;2.83;;;;;;;22.40;59.07;99099.88;7305977;19;129241;-38
2023/01/11 08:58:29;;;;;;;27.60;2.85;;;;;;;22.43;58.87;99123.13;7306515;19;129378;-37
2023/01/11 09:00:57;;;;;;;36.65;3.72;;;;;;;22.40;59.62;99125.25;7305686;19;130380;-37
2023/01/11 09:03:23;;;;;;;21.30;2.28;;;;;;;22.33;59.48;99119.81;7307644;19;130141;-37
2023/01/11 09:05:48;;;;;;;26.27;2.67;;;;;;;22.23;60.11;99113.84;7306294;19;129570;-37
2023/01/11 09:08:13;;;;;;;20.03;2.10;;;;;;;22.21;59.82;99115.00;7308728;19;129862;-38
2023/01/11 09:10:39;;;;;;;43.03;4.22;;;;;;;22.23;60.16;99110.44;7305820;19;129490;-38
2023/01/11 09:13:04;;;;;;;32.07;3.30;;;;;;;22.21;59.54;99113.22;7306983;19;129217;-38
2023/01/11 09:15:29;;;;;;;36.83;3.80;;;;;;;22.24;59.73;99098.97;7304590;19;129694;-38
2023/01/11 09:17:55;;;;;;;31.42;3.33;;;;;;;22.32;59.90;99106.88;7296313;19;131158;-38
2023/01/11 09:20:21;;;;;;;31.90;3.07;;;;;;;22.38;58.95;99112.31;7300125;19;129785;-37
2023/01/11 09:22:48;;;;;;;43.65;4.15;;;;;;;22.44;59.53;99116.09;7306340;19;129735;-37
2023/01/11 09:25:14;;;;;;;36.88;4.72;;;;;;;22.51;58.62;99111.88;7304187;19;129915;-38
2023/01/11 09:27:47;;;;;;;37.90;3.67;;;;;;;22.57;58.68;99108.66;7307675;19;129980;-37
2023/01/11 09:30:15;;;;;;;45.03;3.95;;;;;;;22.62;58.98;99114.25;7306073;19;129888;-38
2023/01/11 09:32:40;;;;;;;37.17;3.55;;;;;;;22.55;58.53;99111.44;7306693;19;129790;-37
2023/01/11 09:35:07;;;;;;;47.53;5.77;;;;;;;22.60;58.61;99108.34;7305931;19;130350;-38
2023/01/11 09:37:34;;;;;;;29.55;3.22;;;;;;;22.68;58.17;99103.97;7304991;19;129940;-36
2023/01/11 09:40:00;;;;;;;37.13;3.78;;;;;;;22.84;58.44;99100.59;7305833;19;129567;-37
2023/01/11 09:42:35;;;;;;;20.27;2.10;;;;;;;22.71;58.63;99081.88;7303678;19;129540;-37
2023/01/11 09:45:22;;;;;;;27.05;2.85;;;;;;;22.78;58.40;99085.47;7307367;19;130311;-37
2023/01/11 09:48:03;;;;;;;38.83;3.65;;;;;;;22.76;58.52;99074.31;7306040;19;129201;-38
2023/01/11 09:50:49;;;;;;;33.83;3.25;;;;;;;22.73;58.23;99072.03;7303511;19;129697;-37
2023/01/11 09:53:26;;;;;;;37.47;3.60;;;;;;;22.76;57.92;99090.03;7301768;19;129350;-37
2023/01/11 09:55:55;;;;;;;39.05;3.97;;;;;;;22.68;58.14;99079.53;7305029;19;129862;-38
2023/01/11 09:58:31;;;;;;;53.08;5.78;;;;;;;22.58;58.47;99081.47;7299468;19;130349;-38
2023/01/11 10:01:20;;;;;;;45.78;4.45;;;;;;;22.51;58.90;99065.53;7303376;19;130993;-38
2023/01/11 10:04:20;;;;;;;42.95;4.40;;;;;;;22.47;59.25;99079.13;7300775;19;129614;-38
2023/01/11 10:07:15;;;;;;;46.35;4.82;;;;;;;22.40;59.01;99071.06;7293887;19;129410;-38
2023/01/11 10:09:55;;;;;;;53.60;6.13;;;;;;;22.30;59.41;99065.13;7298672;19;129363;-38
2023/01/11 10:12:30;;;;;;;37.15;3.53;;;;;;;22.25;59.44;99069.19;7300879;19;130236;-38
2023/01/11 10:15:20;;;;;;;31.40;3.28;;;;;;;22.22;60.16;99070.34;7305575;19;130249;-38
2023/01/11 10:17:56;;;;;;;52.95;5.03;;;;;;;22.29;59.74;99068.72;7295756;19;130087;-38
2023/01/11 10:20:26;;;;;;;30.08;3.08;;;;;;;22.33;60.07;99069.25;7305112;19;129570;-38
2023/01/11 10:22:59;;;;;;;31.55;3.20;;;;;;;22.37;59.74;99057.47;7302179;19;129316;-38
2023/01/11 10:25:32;;;;;;;28.77;3.10;;;;;;;22.41;59.41;99056.19;7302239;19;129600;-37
2023/01/11 10:28:06;;;;;;;26.95;2.83;;;;;;;22.47;58.86;99052.91;7301144;19;131600;-39
2023/01/11 10:41:32;;;;;;;31.80;3.17;;;;;;;22.70;58.23;99040.91;7304163;19;129857;-39
2023/01/11 10:44:08;;;;;;;46.08;4.47;;;;;;;22.79;57.99;99032.09;7304522;19;129606;-38
2023/01/11 10:46:39;;;;;;;29.00;2.90;;;;;;;22.82;58.55;99029.16;7302059;19;130211;-40
2023/01/11 10:49:37;;;;;;;36.17;3.47;;;;;;;22.82;58.42;99029.16;7303858;19;129436;-38
2023/01/11 10:52:17;;;;;;;45.45;5.15;;;;;;;22.85;58.54;99028.81;7301770;19;129958;-40
2023/01/11 10:54:45;;;;;;;44.97;4.72;;;;;;;22.80;58.54;99034.56;7303561;19;131070;-40
2023/01/11 10:57:32;;;;;;;30.63;3.15;;;;;;;22.70;59.00;99023.38;7302221;19;130771;-39
2023/01/11 11:00:06;;;;;;;35.83;3.90;;;;;;;22.68;58.33;99029.75;7303690;19;129679;-41
2023/01/11 11:02:57;;;;;;;40.13;4.10;;;;;;;22.61;58.76;99029.56;7300171;19;130156;-39
2023/01/11 11:05:36;;;;;;;35.45;3.63;;;;;;;22.53;59.29;99026.09;7301954;19;129236;-39
2023/01/11 11:08:12;;;;;;;30.70;3.10;;;;;;;22.49;59.19;99014.28;7303027;19;129844;-38
2023/01/11 11:10:57;;;;;;;37.22;3.55;;;;;;;22.41;59.65;99011.66;7305187;19;129613;-40
2023/01/11 11:13:38;;;;;;;44.88;4.82;;;;;;;22.36;59.43;99011.31;7304168;19;129567;-39
2023/01/11 11:16:23;;;;;;;35.67;3.22;;;;;;;22.29;60.01;99018.16;7302563;19;130379;-36
2023/01/11 11:18:50;;;;;;;29.85;2.80;;;;;;;22.24;60.27;99016.00;7288487;19;131467;-37
2023/01/11 11:21:36;;;;;;;28.10;2.97;;;;;;;22.27;60.22;99017.47;7302917;19;129294;-39
2023/01/11 11:24:42;;;;;;;29.40;2.90;;;;;;;22.25;60.05;99012.41;7300059;19;129102;-38
2023/01/11 11:27:17;;;;;;;32.15;3.60;;;;;;;22.34;60.06;99005.41;7299849;19;130593;-39
2023/01/11 11:29:48;;;;;;;27.48;2.80;;;;;;;22.32;59.46;99007.34;7301748;19;130520;-39
2023/01/11 11:32:19;;;;;;;46.33;5.43;;;;;;;22.46;59.46;99009.38;7298642;19;129889;-40
2023/01/11 11:34:49;;;;;;;41.63;4.15;;;;;;;22.51;59.45;99007.09;7301457;19;129599;-37
2023/01/11 11:37:25;;;;;;;48.83;5.03;;;;;;;22.62;58.60;99004.22;7299620;19;129598;-38
2023/01/11 11:39:52;;;;;;;32.45;3.38;;;;;;;22.63;59.01;98996.19;7303456;19;129320;-39
2023/01/11 11:42:20;;;;;;;22.65;2.45;;;;;;;22.68;59.11;99003.56;7300450;19;129414;-40
2023/01/11 11:45:03;;;;;;;41.85;3.97;;;;;;;22.65;58.66;98982.91;7302565;19;129608;-37
2023/01/11 11:47:28;;;;;;;40.97;4.45;;;;;;;22.86;58.22;98997.19;7301309;19;130296;-39
2023/01/11 11:50:22;;;;;;;40.23;4.03;;;;;;;22.87;57.78;98987.53;7299946;19;129604;-37
2023/01/11 11:53:01;;;;;;;39.90;3.75;;;;;;;22.92;57.73;98988.69;7301448;19;130343;-38
2023/01/11 11:55:29;;;;;;;45.30;4.28;;;;;;;22.92;58.34;98975.56;7300232;19;129649;-38
2023/01/11 11:57:57;;;;;;;27.40;2.75;;;;;;;22.87;58.59;98982.31;7301326;19;130376;-41
2023/01/11 12:00:26;;;;;;;31.20;2.97;;;;;;;22.83;58.01;98980.97;7299714;19;129880;-38
2023/01/11 12:03:21;;;;;;;35.90;3.45;;;;;;;22.63;58.57;98975.22;7302921;19;131638;-38
2023/01/11 12:05:53;;;;;;;35.65;3.47;;;;;;;22.62;58.83;98972.75;7300364;19;129940;-39